Time;durP1;ratioP1;P1;durP2;ratioP2;P2;SDS_P1;SDS_P2;PMS_P1;PMS_P2;Temp;Humidity;BMP_temperature;BMP_pressure;BME280_temperature;BME280_humidity;BME280_pressure;Samples;Min_cycle;Max_cycle;Signal;HPM_P1;HPM_P2
2023/05/12 00:00:24;;;;;;;19.38;11.68;;;;;;;;;;5036482;28;20025;-66
2023/05/12 00:02:50;;;;;;;109.75;19.20;;;;;;;;;;5036537;28;20377;-66
2023/05/12 00:05:17;;;;;;;58.30;13.48;;;;;;;;;;5036425;28;20033;-68
2023/05/12 00:07:44;;;;;;;52.17;23.35;;;;;;;;;;5036029;28;20029;-68
2023/05/12 00:10:10;;;;;;;185.13;133.90;;;;;;;;;;5035877;28;20022;-68
2023/05/12 00:12:37;;;;;;;102.80;68.65;;;;;;;;;;5035373;28;20382;-67
2023/05/12 00:15:04;;;;;;;102.22;69.85;;;;;;;;;;5035974;28;20065;-71
2023/05/12 00:17:31;;;;;;;46.00;26.52;;;;;;;;;;5035867;28;20075;-69
2023/05/12 00:19:57;;;;;;;55.08;26.40;;;;;;;;;;5035850;28;20398;-71
2023/05/12 00:22:25;;;;;;;43.53;21.52;;;;;;;;;;5035932;28;20022;-69
2023/05/12 00:24:52;;;;;;;26.13;14.23;;;;;;;;;;5035591;28;20072;-69
2023/05/12 00:27:18;;;;;;;47.53;30.55;;;;;;;;;;5035451;28;20022;-67
2023/05/12 00:29:45;;;;;;;75.15;45.75;;;;;;;;;;5035617;28;20111;-67
2023/05/12 00:32:12;;;;;;;80.18;59.17;;;;;;;;;;5035412;28;20517;-69
2023/05/12 00:34:38;;;;;;;56.42;38.05;;;;;;;;;;5035401;28;20025;-67
2023/05/12 00:37:06;;;;;;;62.10;41.80;;;;;;;;;;5035290;28;20029;-70
2023/05/12 00:39:32;;;;;;;65.63;39.10;;;;;;;;;;5035126;28;20057;-69
2023/05/12 00:41:59;;;;;;;79.60;48.28;;;;;;;;;;5035517;28;20041;-69
2023/05/12 00:44:26;;;;;;;79.63;38.67;;;;;;;;;;5035243;28;20033;-67
2023/05/12 00:46:54;;;;;;;56.42;26.60;;;;;;;;;;5035298;28;20021;-67
2023/05/12 00:49:20;;;;;;;57.05;25.08;;;;;;;;;;5035125;28;20029;-67
2023/05/12 00:51:47;;;;;;;43.28;19.85;;;;;;;;;;5035100;28;20088;-67
2023/05/12 00:54:14;;;;;;;52.60;28.67;;;;;;;;;;5035250;28;20028;-67
2023/05/12 00:56:40;;;;;;;85.78;57.03;;;;;;;;;;5035076;28;20013;-68
2023/05/12 00:59:07;;;;;;;90.97;58.85;;;;;;;;;;5035269;28;20036;-67
2023/05/12 01:01:34;;;;;;;81.13;42.40;;;;;;;;;;5034923;28;20029;-68
2023/05/12 01:04:02;;;;;;;93.47;50.08;;;;;;;;;;5035122;28;20037;-69
2023/05/12 01:06:33;;;;;;;70.03;34.45;;;;;;;;;;5035049;28;20112;-69
2023/05/12 01:08:59;;;;;;;52.97;21.42;;;;;;;;;;5034720;28;20028;-69
2023/05/12 01:11:26;;;;;;;40.60;21.65;;;;;;;;;;5034817;28;20221;-69
2023/05/12 01:13:52;;;;;;;22.65;9.98;;;;;;;;;;5034856;28;20028;-68
2023/05/12 01:16:22;;;;;;;21.92;6.63;;;;;;;;;;5034375;28;20180;-69
2023/05/12 01:18:52;;;;;;;27.88;6.15;;;;;;;;;;5034533;28;20029;-69
2023/05/12 01:21:19;;;;;;;14.77;5.50;;;;;;;;;;5025673;28;20383;-68
2023/05/12 01:23:50;;;;;;;23.10;5.97;;;;;;;;;;5047801;28;20021;-67
2023/05/12 01:26:16;;;;;;;17.98;4.82;;;;;;;;;;5054418;28;20075;-68
2023/05/12 01:28:43;;;;;;;29.83;5.60;;;;;;;;;;5037974;28;20532;-68
2023/05/12 01:31:09;;;;;;;18.13;6.00;;;;;;;;;;5034298;28;20034;-71
2023/05/12 01:33:36;;;;;;;22.30;7.97;;;;;;;;;;5034643;28;20021;-72
2023/05/12 01:36:03;;;;;;;12.30;4.97;;;;;;;;;;5034546;28;20077;-72
2023/05/12 01:38:30;;;;;;;50.25;6.80;;;;;;;;;;5034413;28;20108;-71
2023/05/12 01:40:56;;;;;;;16.88;4.90;;;;;;;;;;5034462;28;20494;-72
2023/05/12 01:43:23;;;;;;;12.80;4.75;;;;;;;;;;5034450;28;20030;-72
2023/05/12 01:45:49;;;;;;;15.07;4.55;;;;;;;;;;5034206;28;20017;-72
2023/05/12 01:48:16;;;;;;;16.35;5.03;;;;;;;;;;5034128;28;20163;-71
2023/05/12 01:50:43;;;;;;;18.55;5.80;;;;;;;;;;5034149;28;20044;-70
2023/05/12 01:53:09;;;;;;;17.48;8.77;;;;;;;;;;5034097;28;20021;-69
2023/05/12 01:55:36;;;;;;;21.92;10.50;;;;;;;;;;5034202;28;20021;-69
2023/05/12 01:58:03;;;;;;;18.02;8.27;;;;;;;;;;5033778;28;20501;-72
2023/05/12 02:00:29;;;;;;;19.77;9.38;;;;;;;;;;5034159;28;20048;-71
2023/05/12 02:02:56;;;;;;;25.83;15.38;;;;;;;;;;5033874;28;20029;-70
2023/05/12 02:05:23;;;;;;;26.30;13.57;;;;;;;;;;5033924;28;20029;-70
2023/05/12 02:07:49;;;;;;;23.40;12.13;;;;;;;;;;5034004;28;20033;-69
2023/05/12 02:10:16;;;;;;;17.92;8.23;;;;;;;;;;5033758;28;20048;-70
2023/05/12 02:12:43;;;;;;;35.22;21.40;;;;;;;;;;5033622;28;20071;-72
2023/05/12 02:15:10;;;;;;;31.00;7.65;;;;;;;;;;5033564;28;20044;-72
2023/05/12 02:17:36;;;;;;;15.70;8.73;;;;;;;;;;5033447;28;20435;-71
2023/05/12 02:20:04;;;;;;;16.50;6.43;;;;;;;;;;5033668;28;20386;-72
2023/05/12 02:22:30;;;;;;;70.45;52.63;;;;;;;;;;5033407;28;20028;-70
2023/05/12 02:24:57;;;;;;;11.50;6.30;;;;;;;;;;5033535;28;20096;-71
2023/05/12 02:27:23;;;;;;;15.40;5.07;;;;;;;;;;5033637;28;20104;-72
2023/05/12 02:29:50;;;;;;;48.97;32.50;;;;;;;;;;5033939;28;20040;-69
2023/05/12 02:32:17;;;;;;;19.70;10.30;;;;;;;;;;5033332;28;20386;-71
2023/05/12 02:34:44;;;;;;;20.75;9.63;;;;;;;;;;5033486;28;20014;-72
2023/05/12 02:37:11;;;;;;;39.15;26.40;;;;;;;;;;5033389;28;20029;-71
2023/05/12 02:39:37;;;;;;;19.38;9.73;;;;;;;;;;5033667;28;20086;-72
2023/05/12 02:42:04;;;;;;;43.40;28.23;;;;;;;;;;5033441;28;20105;-70
2023/05/12 02:44:31;;;;;;;12.43;4.10;;;;;;;;;;5033088;28;20446;-71
2023/05/12 02:46:57;;;;;;;13.75;4.50;;;;;;;;;;5033130;28;20060;-72
2023/05/12 02:49:24;;;;;;;18.70;5.82;;;;;;;;;;5033396;28;20025;-71
2023/05/12 02:51:51;;;;;;;13.65;4.20;;;;;;;;;;5033657;28;20363;-71
2023/05/12 02:54:17;;;;;;;18.48;5.55;;;;;;;;;;5033474;28;20051;-71
2023/05/12 02:56:44;;;;;;;13.50;6.43;;;;;;;;;;5034124;28;20079;-66
2023/05/12 02:59:11;;;;;;;12.48;5.07;;;;;;;;;;5027295;28;20079;-71
2023/05/12 03:01:37;;;;;;;12.50;4.32;;;;;;;;;;5021626;28;20025;-70
2023/05/12 03:04:04;;;;;;;12.40;4.65;;;;;;;;;;5023424;28;20034;-71
2023/05/12 03:06:31;;;;;;;8.68;3.17;;;;;;;;;;5022300;28;20026;-70
2023/05/12 03:08:58;;;;;;;8.57;3.03;;;;;;;;;;5021645;28;20101;-69
2023/05/12 03:11:25;;;;;;;6.75;2.67;;;;;;;;;;5021350;28;20029;-67
2023/05/12 03:13:52;;;;;;;8.98;3.80;;;;;;;;;;5022108;28;20021;-70
2023/05/12 03:16:19;;;;;;;12.30;4.53;;;;;;;;;;5037060;28;20056;-70
2023/05/12 03:18:45;;;;;;;9.85;3.92;;;;;;;;;;5030988;28;20104;-69
2023/05/12 03:21:12;;;;;;;10.95;4.38;;;;;;;;;;5022149;28;20022;-70
2023/05/12 03:23:38;;;;;;;9.35;3.97;;;;;;;;;;5021169;28;20021;-68
2023/05/12 03:26:05;;;;;;;14.77;4.00;;;;;;;;;;5022904;28;20041;-72
2023/05/12 03:28:32;;;;;;;18.40;6.13;;;;;;;;;;5021851;28;20022;-70
2023/05/12 03:30:58;;;;;;;14.50;5.57;;;;;;;;;;5021255;28;20033;-70
2023/05/12 03:33:25;;;;;;;17.17;8.15;;;;;;;;;;5028713;28;20083;-69
2023/05/12 03:35:52;;;;;;;66.75;28.75;;;;;;;;;;5043947;28;20021;-69
2023/05/12 03:38:18;;;;;;;24.92;12.60;;;;;;;;;;5052446;28;20108;-75
2023/05/12 03:40:51;;;;;;;9.43;4.43;;;;;;;;;;5037096;28;20104;-75
2023/05/12 03:43:17;;;;;;;14.07;4.00;;;;;;;;;;5051130;28;20070;-74
2023/05/12 03:45:44;;;;;;;16.15;5.38;;;;;;;;;;5053231;28;20072;-72
2023/05/12 03:48:11;;;;;;;9.27;4.93;;;;;;;;;;5055480;28;20477;-66
2023/05/12 03:50:37;;;;;;;27.20;19.20;;;;;;;;;;5056514;28;20044;-69
2023/05/12 03:53:04;;;;;;;83.25;67.75;;;;;;;;;;5055891;28;20021;-70
2023/05/12 03:55:31;;;;;;;33.90;23.42;;;;;;;;;;5055801;28;20095;-71
2023/05/12 03:57:57;;;;;;;21.23;13.18;;;;;;;;;;5055482;28;20124;-72
2023/05/12 04:00:24;;;;;;;28.60;13.82;;;;;;;;;;5055962;28;20033;-71
2023/05/12 04:02:50;;;;;;;19.50;8.90;;;;;;;;;;5056061;28;20029;-72
2023/05/12 04:05:17;;;;;;;18.30;8.57;;;;;;;;;;5056164;28;20025;-70
2023/05/12 04:07:44;;;;;;;14.75;7.95;;;;;;;;;;5055894;28;20029;-71
2023/05/12 04:10:11;;;;;;;8.27;4.50;;;;;;;;;;5055871;28;20017;-70
2023/05/12 04:12:38;;;;;;;9.93;3.85;;;;;;;;;;5055958;28;20471;-70
2023/05/12 04:15:05;;;;;;;11.68;4.68;;;;;;;;;;5055885;28;20041;-72
2023/05/12 04:17:32;;;;;;;16.23;7.05;;;;;;;;;;5056115;28;20029;-70
2023/05/12 04:19:59;;;;;;;40.15;22.95;;;;;;;;;;5056376;28;20186;-73
2023/05/12 04:22:26;;;;;;;51.53;34.78;;;;;;;;;;5055746;28;20086;-71
2023/05/12 04:24:52;;;;;;;26.15;12.02;;;;;;;;;;5055435;28;20104;-69
2023/05/12 04:27:19;;;;;;;10.13;4.00;;;;;;;;;;5055093;28;20021;-69
2023/05/12 04:29:46;;;;;;;12.80;3.92;;;;;;;;;;5055065;28;20082;-69
2023/05/12 04:32:12;;;;;;;12.25;3.38;;;;;;;;;;5054830;28;20474;-69
2023/05/12 04:34:39;;;;;;;11.98;5.97;;;;;;;;;;5055122;28;20167;-70
2023/05/12 04:37:05;;;;;;;20.35;9.88;;;;;;;;;;5055085;28;20475;-69
2023/05/12 04:39:32;;;;;;;13.45;3.10;;;;;;;;;;5052667;28;20028;-69
2023/05/12 04:42:00;;;;;;;9.30;3.35;;;;;;;;;;5042590;28;20370;-71
2023/05/12 04:44:27;;;;;;;6.97;3.40;;;;;;;;;;5054277;28;20039;-70
2023/05/12 04:46:57;;;;;;;14.35;5.47;;;;;;;;;;5033890;28;20482;-69
2023/05/12 04:49:26;;;;;;;11.45;5.03;;;;;;;;;;5022943;28;20087;-71
2023/05/12 04:51:53;;;;;;;18.75;10.07;;;;;;;;;;5024625;28;20386;-69
2023/05/12 04:54:19;;;;;;;17.45;8.38;;;;;;;;;;5023596;28;20026;-70
2023/05/12 04:56:46;;;;;;;14.15;5.88;;;;;;;;;;5022351;28;20360;-69
2023/05/12 04:59:15;;;;;;;22.42;8.38;;;;;;;;;;5023854;28;20101;-70
2023/05/12 05:01:42;;;;;;;68.47;30.08;;;;;;;;;;5023771;28;20386;-70
2023/05/12 05:04:09;;;;;;;27.05;11.55;;;;;;;;;;5022040;28;20057;-68
2023/05/12 05:06:35;;;;;;;8.93;4.13;;;;;;;;;;5022364;28;20029;-71
2023/05/12 05:09:02;;;;;;;7.20;3.10;;;;;;;;;;5022643;28;20033;-70
2023/05/12 05:11:29;;;;;;;13.45;4.97;;;;;;;;;;5024700;28;20025;-69
2023/05/12 05:13:55;;;;;;;29.95;13.63;;;;;;;;;;5024555;28;20087;-68
2023/05/12 05:16:22;;;;;;;15.75;7.00;;;;;;;;;;5024769;28;20141;-68
2023/05/12 05:18:49;;;;;;;6.00;3.40;;;;;;;;;;5023629;28;20018;-67
2023/05/12 05:21:15;;;;;;;17.15;6.18;;;;;;;;;;5023138;28;20509;-68
2023/05/12 05:23:42;;;;;;;6.78;3.80;;;;;;;;;;5024578;28;20107;-68
2023/05/12 05:26:09;;;;;;;9.05;4.40;;;;;;;;;;5022264;28;20413;-67
2023/05/12 05:28:38;;;;;;;7.38;3.85;;;;;;;;;;5022664;28;20033;-69
2023/05/12 05:31:05;;;;;;;7.60;2.60;;;;;;;;;;5022741;28;20042;-67
2023/05/12 05:33:32;;;;;;;8.48;2.95;;;;;;;;;;5023598;28;20026;-67
2023/05/12 05:35:59;;;;;;;11.55;3.95;;;;;;;;;;5028691;28;20282;-68
2023/05/12 05:38:25;;;;;;;10.63;2.95;;;;;;;;;;5019157;28;20033;-67
2023/05/12 05:40:52;;;;;;;7.30;3.30;;;;;;;;;;5017396;28;20030;-67
2023/05/12 05:43:19;;;;;;;10.48;3.97;;;;;;;;;;5018897;28;20096;-68
2023/05/12 05:45:46;;;;;;;11.77;3.45;;;;;;;;;;5031027;28;20037;-68
2023/05/12 05:48:12;;;;;;;9.25;3.10;;;;;;;;;;5023433;28;20021;-67
2023/05/12 05:50:39;;;;;;;7.80;3.20;;;;;;;;;;5017234;28;20201;-66
2023/05/12 05:53:06;;;;;;;6.43;3.28;;;;;;;;;;5021859;28;20528;-67
2023/05/12 05:55:32;;;;;;;5.97;2.92;;;;;;;;;;5029612;28;20040;-66
2023/05/12 05:57:59;;;;;;;6.85;2.58;;;;;;;;;;5032532;28;20022;-65
2023/05/12 06:00:26;;;;;;;6.35;3.03;;;;;;;;;;5033220;28;20029;-67
2023/05/12 06:02:52;;;;;;;9.57;4.05;;;;;;;;;;5032802;28;20041;-68
2023/05/12 06:05:19;;;;;;;10.75;3.35;;;;;;;;;;5032621;28;20025;-67
2023/05/12 06:07:46;;;;;;;7.32;2.75;;;;;;;;;;5032505;28;20036;-68
2023/05/12 06:10:12;;;;;;;8.88;3.55;;;;;;;;;;5026851;28;20040;-68
2023/05/12 06:12:40;;;;;;;4.63;2.65;;;;;;;;;;5021776;28;20022;-68
2023/05/12 06:15:07;;;;;;;6.13;3.78;;;;;;;;;;5030569;28;20056;-69
2023/05/12 06:17:34;;;;;;;9.55;3.08;;;;;;;;;;5026299;28;20022;-70
2023/05/12 06:20:00;;;;;;;4.72;3.13;;;;;;;;;;5023118;28;20029;-74
2023/05/12 06:22:27;;;;;;;11.27;4.35;;;;;;;;;;5021986;28;20028;-70
2023/05/12 06:24:54;;;;;;;22.73;4.90;;;;;;;;;;5020871;28;20038;-69
2023/05/12 06:27:20;;;;;;;7.93;2.90;;;;;;;;;;5019251;28;20018;-70
2023/05/12 06:29:51;;;;;;;9.38;3.40;;;;;;;;;;5021350;28;20128;-69
2023/05/12 06:32:17;;;;;;;9.68;3.80;;;;;;;;;;5023069;28;20030;-74
2023/05/12 06:34:44;;;;;;;7.10;2.92;;;;;;;;;;5022794;28;20077;-71
2023/05/12 06:37:11;;;;;;;9.15;3.45;;;;;;;;;;5022766;28;20029;-73
2023/05/12 06:39:37;;;;;;;8.07;3.58;;;;;;;;;;5024355;28;20020;-68
2023/05/12 06:42:04;;;;;;;5.35;3.17;;;;;;;;;;5025906;28;20083;-70
2023/05/12 06:44:31;;;;;;;5.40;3.08;;;;;;;;;;5039781;28;20036;-67
2023/05/12 06:46:57;;;;;;;7.38;3.38;;;;;;;;;;5028574;28;20410;-68
2023/05/12 06:49:24;;;;;;;7.25;3.72;;;;;;;;;;5028941;28;20037;-67
2023/05/12 06:51:50;;;;;;;8.90;4.35;;;;;;;;;;5022012;28;20381;-68
2023/05/12 06:54:17;;;;;;;7.32;2.72;;;;;;;;;;5018999;28;20104;-69
2023/05/12 06:56:44;;;;;;;6.78;2.80;;;;;;;;;;5019534;28;20020;-68
2023/05/12 06:59:11;;;;;;;7.78;3.28;;;;;;;;;;5018905;28;20108;-68
2023/05/12 07:01:38;;;;;;;9.93;4.97;;;;;;;;;;5018843;28;20017;-68
2023/05/12 07:04:04;;;;;;;9.65;4.28;;;;;;;;;;5019251;28;20430;-68
2023/05/12 07:06:33;;;;;;;14.93;6.57;;;;;;;;;;5018966;28;20542;-69
2023/05/12 07:08:59;;;;;;;17.85;8.55;;;;;;;;;;5021187;28;20092;-67
2023/05/12 07:11:26;;;;;;;13.13;8.73;;;;;;;;;;5016835;28;20093;-68
2023/05/12 07:13:53;;;;;;;16.45;7.90;;;;;;;;;;5013203;28;20084;-67
2023/05/12 07:16:20;;;;;;;8.23;4.85;;;;;;;;;;5012846;28;20434;-70
2023/05/12 07:18:47;;;;;;;12.90;4.75;;;;;;;;;;5018112;28;20025;-68
2023/05/12 07:21:13;;;;;;;7.47;3.92;;;;;;;;;;5023874;28;20033;-68
2023/05/12 07:23:40;;;;;;;12.13;5.88;;;;;;;;;;5024880;28;20047;-69
2023/05/12 07:26:07;;;;;;;14.75;5.15;;;;;;;;;;5026172;28;20086;-69
2023/05/12 07:28:35;;;;;;;34.40;23.05;;;;;;;;;;5026796;28;20037;-69
2023/05/12 07:31:04;;;;;;;20.63;9.57;;;;;;;;;;5025048;28;20018;-69
2023/05/12 07:33:31;;;;;;;20.10;8.82;;;;;;;;;;5025494;28;20029;-67
2023/05/12 07:35:58;;;;;;;15.05;6.53;;;;;;;;;;5026739;28;20017;-70
2023/05/12 07:38:25;;;;;;;12.57;6.18;;;;;;;;;;5025272;28;20104;-68
2023/05/12 07:40:51;;;;;;;10.50;5.60;;;;;;;;;;5025240;28;20517;-68
2023/05/12 07:43:18;;;;;;;9.45;5.43;;;;;;;;;;5026725;28;20075;-68
2023/05/12 07:45:45;;;;;;;10.82;4.78;;;;;;;;;;5025294;28;20070;-69
2023/05/12 07:48:12;;;;;;;14.18;5.32;;;;;;;;;;5025252;28;20061;-68
2023/05/12 07:50:39;;;;;;;10.13;4.18;;;;;;;;;;5026542;28;20466;-68
2023/05/12 07:53:05;;;;;;;11.07;3.92;;;;;;;;;;5025366;28;20108;-69
2023/05/12 07:55:32;;;;;;;7.20;3.60;;;;;;;;;;5025137;28;20485;-68
2023/05/12 07:58:00;;;;;;;19.48;6.32;;;;;;;;;;5021541;28;20025;-68
2023/05/12 08:00:26;;;;;;;11.13;4.00;;;;;;;;;;5016242;28;20030;-68
2023/05/12 08:02:53;;;;;;;7.65;3.20;;;;;;;;;;5016211;28;20026;-69
2023/05/12 08:05:20;;;;;;;9.73;5.30;;;;;;;;;;5016231;28;20040;-72
2023/05/12 08:07:46;;;;;;;15.50;4.35;;;;;;;;;;5016183;28;20033;-70
2023/05/12 08:10:13;;;;;;;5.85;3.38;;;;;;;;;;5026288;28;20045;-71
2023/05/12 08:12:40;;;;;;;17.08;8.68;;;;;;;;;;5026273;28;20104;-71
2023/05/12 08:15:08;;;;;;;13.70;6.78;;;;;;;;;;5026158;28;20042;-71
2023/05/12 08:17:35;;;;;;;6.72;3.55;;;;;;;;;;5026421;28;20021;-71
2023/05/12 08:20:03;;;;;;;9.85;5.13;;;;;;;;;;5032283;28;20036;-70
2023/05/12 08:22:30;;;;;;;16.67;8.50;;;;;;;;;;5025758;28;20053;-70
2023/05/12 08:24:56;;;;;;;10.63;6.35;;;;;;;;;;5008890;28;20363;-69
2023/05/12 08:27:23;;;;;;;9.75;4.47;;;;;;;;;;5026021;28;20083;-70
2023/05/12 08:29:50;;;;;;;13.65;5.65;;;;;;;;;;5023414;28;20355;-70
2023/05/12 08:32:16;;;;;;;10.38;4.43;;;;;;;;;;5025576;28;20466;-69
2023/05/12 08:34:43;;;;;;;5.25;3.08;;;;;;;;;;5025271;28;20076;-71
2023/05/12 08:37:09;;;;;;;19.70;13.95;;;;;;;;;;5024357;28;20104;-70
2023/05/12 08:39:36;;;;;;;9.70;6.93;;;;;;;;;;5025679;28;20386;-71
2023/05/12 08:42:20;;;;;;;11.25;8.18;;;;;;;;;;5023226;28;20060;-71
2023/05/12 08:44:47;;;;;;;25.75;20.27;;;;;;;;;;5023043;28;20506;-70
2023/05/12 08:47:15;;;;;;;10.35;4.57;;;;;;;;;;5025672;28;20033;-71
2023/05/12 08:49:42;;;;;;;39.97;26.20;;;;;;;;;;5023892;28;20030;-68
2023/05/12 08:52:09;;;;;;;8.05;6.15;;;;;;;;;;5024439;28;20022;-70
2023/05/12 08:54:36;;;;;;;11.93;5.38;;;;;;;;;;5022990;28;20100;-70
2023/05/12 08:57:04;;;;;;;16.45;10.15;;;;;;;;;;5015404;28;20414;-73
2023/05/12 08:59:31;;;;;;;11.52;6.78;;;;;;;;;;5015299;28;20383;-70
2023/05/12 09:01:58;;;;;;;14.02;6.55;;;;;;;;;;5015276;28;20025;-70
2023/05/12 09:04:25;;;;;;;13.60;7.50;;;;;;;;;;5015303;28;20056;-70
2023/05/12 09:06:52;;;;;;;17.67;8.93;;;;;;;;;;5017039;28;20028;-70
2023/05/12 09:09:19;;;;;;;58.47;37.97;;;;;;;;;;5033064;28;20029;-70
2023/05/12 09:11:47;;;;;;;15.68;8.50;;;;;;;;;;5028480;28;20022;-70
2023/05/12 09:14:18;;;;;;;5.47;3.78;;;;;;;;;;5023720;28;20021;-70
2023/05/12 09:16:47;;;;;;;8.90;4.13;;;;;;;;;;5022947;28;20033;-69
2023/05/12 09:19:19;;;;;;;19.80;10.15;;;;;;;;;;5024746;28;20429;-70
2023/05/12 09:21:45;;;;;;;18.15;10.73;;;;;;;;;;5033608;28;20036;-70
2023/05/12 09:24:12;;;;;;;12.43;5.75;;;;;;;;;;5033089;28;20078;-69
2023/05/12 09:26:48;;;;;;;7.78;4.13;;;;;;;;;;5038617;28;20029;-69
2023/05/12 09:29:15;;;;;;;8.05;3.70;;;;;;;;;;5024469;28;20048;-69
2023/05/12 09:31:52;;;;;;;7.28;4.85;;;;;;;;;;5028070;28;20021;-70
2023/05/12 09:34:19;;;;;;;10.32;5.00;;;;;;;;;;5024188;28;20014;-70
2023/05/12 09:36:55;;;;;;;14.00;5.50;;;;;;;;;;5026773;28;20478;-70
2023/05/12 09:39:21;;;;;;;47.25;31.17;;;;;;;;;;5024425;28;20112;-70
2023/05/12 09:41:48;;;;;;;73.28;41.53;;;;;;;;;;5022636;28;20497;-70
2023/05/12 09:44:15;;;;;;;81.00;55.60;;;;;;;;;;5022613;28;20026;-70
2023/05/12 09:46:42;;;;;;;22.17;12.90;;;;;;;;;;5023845;28;20053;-71
2023/05/12 09:49:09;;;;;;;115.13;68.80;;;;;;;;;;5022629;28;20021;-71
2023/05/12 09:51:35;;;;;;;35.10;16.30;;;;;;;;;;5022566;28;20017;-70
2023/05/12 09:54:02;;;;;;;45.05;23.23;;;;;;;;;;5024247;28;20091;-70
2023/05/12 09:56:34;;;;;;;40.75;22.08;;;;;;;;;;5026684;28;20092;-70
2023/05/12 09:59:03;;;;;;;40.45;25.90;;;;;;;;;;5033012;28;20064;-69
2023/05/12 10:01:30;;;;;;;45.50;25.20;;;;;;;;;;5022508;28;20092;-68
2023/05/12 10:03:57;;;;;;;36.22;21.17;;;;;;;;;;5022406;28;20063;-69
2023/05/12 10:06:27;;;;;;;33.15;21.02;;;;;;;;;;5024326;28;20026;-70
2023/05/12 10:09:00;;;;;;;29.58;19.05;;;;;;;;;;5028717;28;20026;-70
2023/05/12 10:11:28;;;;;;;33.90;16.42;;;;;;;;;;5025692;28;20028;-70
2023/05/12 10:13:55;;;;;;;36.83;21.90;;;;;;;;;;5033255;28;20409;-69
2023/05/12 10:16:22;;;;;;;54.75;39.00;;;;;;;;;;5023612;28;20038;-70
2023/05/12 10:18:50;;;;;;;30.42;16.25;;;;;;;;;;5025715;28;20024;-67
2023/05/12 10:21:16;;;;;;;35.50;17.85;;;;;;;;;;5025552;28;20021;-69
2023/05/12 10:23:44;;;;;;;34.53;19.75;;;;;;;;;;5024298;28;20028;-72
2023/05/12 10:26:11;;;;;;;63.60;31.15;;;;;;;;;;5022071;28;20021;-71
2023/05/12 10:28:38;;;;;;;39.47;21.02;;;;;;;;;;5024147;28;20024;-72
2023/05/12 10:31:07;;;;;;;21.02;10.48;;;;;;;;;;5023223;28;20016;-71
2023/05/12 10:33:33;;;;;;;25.40;10.40;;;;;;;;;;5030141;28;20018;-73
2023/05/12 10:36:00;;;;;;;20.02;10.65;;;;;;;;;;5024878;28;20013;-72
2023/05/12 10:38:26;;;;;;;39.80;22.27;;;;;;;;;;5022447;28;20017;-71
2023/05/12 10:40:57;;;;;;;70.75;42.28;;;;;;;;;;5026107;28;20438;-73
2023/05/12 10:43:24;;;;;;;59.25;39.88;;;;;;;;;;5020623;28;20030;-71
2023/05/12 10:45:59;;;;;;;42.67;27.45;;;;;;;;;;5021127;28;20378;-71
2023/05/12 10:48:26;;;;;;;54.95;33.78;;;;;;;;;;5023757;28;20388;-71
2023/05/12 10:50:53;;;;;;;57.17;33.80;;;;;;;;;;5021582;28;20021;-72
2023/05/12 10:53:27;;;;;;;127.53;77.82;;;;;;;;;;5013090;28;20432;-72
2023/05/12 10:55:55;;;;;;;45.40;28.38;;;;;;;;;;5026930;28;20014;-72
2023/05/12 10:58:22;;;;;;;53.50;29.70;;;;;;;;;;5027788;28;20029;-72
2023/05/12 11:00:50;;;;;;;91.68;56.28;;;;;;;;;;5029766;28;20391;-71
2023/05/12 11:03:18;;;;;;;59.65;30.65;;;;;;;;;;5062636;22;20309;-71
2023/05/12 11:05:45;;;;;;;78.43;44.13;;;;;;;;;;5044592;28;20021;-77
2023/05/12 11:08:12;;;;;;;73.60;37.42;;;;;;;;;;5044387;28;20017;-76
2023/05/12 11:10:41;;;;;;;86.18;37.13;;;;;;;;;;5044181;28;20496;-70
2023/05/12 11:13:08;;;;;;;70.47;34.10;;;;;;;;;;5045484;28;20031;-73
2023/05/12 11:15:35;;;;;;;77.63;38.28;;;;;;;;;;5044134;28;20105;-74
2023/05/12 11:18:03;;;;;;;77.43;43.63;;;;;;;;;;5044045;28;20049;-77
2023/05/12 11:20:29;;;;;;;56.50;30.30;;;;;;;;;;5047956;28;20100;-73
2023/05/12 11:22:56;;;;;;;71.40;44.42;;;;;;;;;;5046853;28;20076;-71
2023/05/12 11:25:26;;;;;;;102.45;65.65;;;;;;;;;;5049006;28;20026;-73
2023/05/12 11:27:52;;;;;;;76.80;48.92;;;;;;;;;;5048549;28;20025;-71
2023/05/12 11:30:19;;;;;;;49.72;31.23;;;;;;;;;;5051292;28;20025;-70
2023/05/12 11:32:45;;;;;;;39.60;20.38;;;;;;;;;;5051549;28;20019;-70
2023/05/12 11:35:14;;;;;;;44.17;20.55;;;;;;;;;;5046636;28;20031;-73
2023/05/12 11:37:42;;;;;;;45.90;24.55;;;;;;;;;;5045768;28;20067;-69
2023/05/12 11:40:19;;;;;;;43.55;21.63;;;;;;;;;;5030245;28;20045;-67
2023/05/12 11:42:50;;;;;;;42.53;20.80;;;;;;;;;;5031353;28;20108;-67
2023/05/12 11:45:22;;;;;;;35.90;20.02;;;;;;;;;;5031784;28;20041;-68
2023/05/12 11:47:48;;;;;;;43.30;22.52;;;;;;;;;;5016044;28;20295;-67
2023/05/12 11:50:24;;;;;;;58.63;30.13;;;;;;;;;;5016745;28;20563;-68
2023/05/12 11:52:51;;;;;;;60.72;31.15;;;;;;;;;;5028461;28;20018;-68
2023/05/12 11:55:21;;;;;;;50.58;26.35;;;;;;;;;;5025943;28;20020;-69
2023/05/12 11:57:56;;;;;;;49.47;26.08;;;;;;;;;;5022321;28;20040;-69
2023/05/12 12:00:27;;;;;;;49.03;23.63;;;;;;;;;;5021431;28;20096;-70
2023/05/12 12:02:53;;;;;;;39.90;22.35;;;;;;;;;;5018635;28;20107;-67
2023/05/12 12:05:20;;;;;;;55.63;29.50;;;;;;;;;;5025191;28;20022;-68
2023/05/12 12:07:47;;;;;;;46.67;25.98;;;;;;;;;;5022062;28;20022;-69
2023/05/12 12:10:14;;;;;;;47.80;25.02;;;;;;;;;;5025706;28;20022;-69
2023/05/12 12:12:41;;;;;;;84.35;27.67;;;;;;;;;;5029447;28;20449;-67
2023/05/12 12:15:09;;;;;;;66.95;24.70;;;;;;;;;;5026234;28;20032;-69
2023/05/12 12:17:35;;;;;;;47.70;21.58;;;;;;;;;;5024601;28;20024;-71
2023/05/12 12:20:03;;;;;;;103.55;68.40;;;;;;;;;;5032232;28;20053;-72
2023/05/12 12:22:32;;;;;;;73.57;43.97;;;;;;;;;;5026163;28;20040;-69
2023/05/12 12:24:59;;;;;;;86.90;49.78;;;;;;;;;;5027863;28;20125;-67
2023/05/12 12:27:26;;;;;;;105.72;75.72;;;;;;;;;;5031265;28;20489;-69
2023/05/12 12:29:53;;;;;;;71.68;44.75;;;;;;;;;;5031302;28;20086;-71
2023/05/12 12:32:19;;;;;;;47.53;24.73;;;;;;;;;;5025987;28;20018;-70
2023/05/12 12:34:47;;;;;;;74.25;47.30;;;;;;;;;;5031364;28;20030;-70
2023/05/12 12:37:14;;;;;;;94.97;64.47;;;;;;;;;;5027726;28;20025;-70
2023/05/12 12:39:41;;;;;;;56.28;38.08;;;;;;;;;;5028275;28;20489;-70
2023/05/12 12:42:08;;;;;;;56.38;39.00;;;;;;;;;;5026269;28;20033;-68
2023/05/12 12:44:34;;;;;;;42.80;24.33;;;;;;;;;;5029378;28;20036;-69
2023/05/12 12:47:01;;;;;;;42.35;21.75;;;;;;;;;;5024329;28;20032;-69
2023/05/12 12:49:28;;;;;;;34.38;20.00;;;;;;;;;;5025142;28;20057;-68
2023/05/12 12:51:54;;;;;;;35.50;20.67;;;;;;;;;;5026949;28;20116;-68
2023/05/12 12:54:21;;;;;;;37.33;22.08;;;;;;;;;;5027098;28;20021;-68
2023/05/12 12:56:48;;;;;;;45.00;23.88;;;;;;;;;;5024954;28;20558;-67
2023/05/12 12:59:14;;;;;;;35.53;19.38;;;;;;;;;;5023182;28;20029;-68
2023/05/12 13:01:41;;;;;;;28.77;16.88;;;;;;;;;;5024207;28;20092;-69
2023/05/12 13:04:08;;;;;;;18.33;11.38;;;;;;;;;;5024939;28;20093;-69
2023/05/12 13:06:34;;;;;;;16.08;11.10;;;;;;;;;;5024352;28;20403;-68
2023/05/12 13:09:02;;;;;;;17.98;11.45;;;;;;;;;;5034979;28;20371;-67
2023/05/12 13:11:29;;;;;;;20.20;11.10;;;;;;;;;;5034988;28;20462;-68
2023/05/12 13:13:56;;;;;;;21.13;11.00;;;;;;;;;;5026634;28;20076;-64
2023/05/12 13:16:22;;;;;;;15.10;8.23;;;;;;;;;;5014907;28;20029;-67
2023/05/12 13:18:49;;;;;;;14.43;8.38;;;;;;;;;;5016311;28;20113;-68
2023/05/12 13:21:17;;;;;;;14.88;7.90;;;;;;;;;;5018314;28;20084;-68
2023/05/12 13:23:44;;;;;;;14.18;8.73;;;;;;;;;;5034569;28;20389;-67
2023/05/12 13:26:10;;;;;;;13.63;9.65;;;;;;;;;;5014866;28;20030;-68
2023/05/12 13:28:37;;;;;;;20.35;11.15;;;;;;;;;;5014900;28;20034;-67
2023/05/12 13:31:04;;;;;;;20.13;11.60;;;;;;;;;;5014717;28;20022;-68
2023/05/12 13:33:31;;;;;;;23.65;12.20;;;;;;;;;;5014722;28;20072;-66
2023/05/12 13:35:58;;;;;;;22.15;12.13;;;;;;;;;;5014635;28;20029;-68
2023/05/12 13:38:25;;;;;;;22.38;11.95;;;;;;;;;;4997372;28;20379;-70
2023/05/12 13:40:51;;;;;;;26.35;11.50;;;;;;;;;;5014795;28;20115;-69
2023/05/12 13:43:18;;;;;;;22.60;11.68;;;;;;;;;;5014421;28;20399;-69
2023/05/12 13:45:45;;;;;;;21.80;11.90;;;;;;;;;;5016959;28;20129;-70
2023/05/12 13:48:12;;;;;;;16.90;10.43;;;;;;;;;;5026810;28;20056;-69
2023/05/12 13:50:38;;;;;;;13.52;7.68;;;;;;;;;;5029192;28;20091;-69
2023/05/12 13:53:05;;;;;;;14.20;7.28;;;;;;;;;;5034226;28;20028;-68
2023/05/12 13:55:33;;;;;;;10.20;5.60;;;;;;;;;;5013119;28;20018;-69
2023/05/12 13:57:59;;;;;;;12.88;5.93;;;;;;;;;;5014361;28;20030;-69
2023/05/12 14:00:28;;;;;;;13.85;6.10;;;;;;;;;;5014323;28;20036;-69
2023/05/12 14:02:58;;;;;;;15.55;6.43;;;;;;;;;;5014117;28;20049;-72
2023/05/12 14:05:26;;;;;;;7.07;4.40;;;;;;;;;;5014304;28;20091;-69
2023/05/12 14:07:52;;;;;;;6.68;4.32;;;;;;;;;;5014018;28;20022;-70
2023/05/12 14:10:19;;;;;;;12.38;4.60;;;;;;;;;;5014140;28;20072;-70
2023/05/12 14:12:46;;;;;;;18.83;12.40;;;;;;;;;;5014173;28;20022;-69
2023/05/12 14:15:13;;;;;;;15.63;9.80;;;;;;;;;;5014049;28;20022;-69
2023/05/12 14:17:39;;;;;;;17.85;8.55;;;;;;;;;;5014119;28;20423;-68
2023/05/12 14:20:06;;;;;;;15.77;7.57;;;;;;;;;;5025560;28;20029;-68
2023/05/12 14:22:33;;;;;;;19.52;8.95;;;;;;;;;;5013888;28;20033;-69
2023/05/12 14:25:00;;;;;;;15.38;7.70;;;;;;;;;;5013982;28;20120;-68